Time;durP1;ratioP1;P1;durP2;ratioP2;P2;SDS_P1;SDS_P2;PMS_P1;PMS_P2;Temp;Humidity;BMP_temperature;BMP_pressure;BME280_temperature;BME280_humidity;BME280_pressure;Samples;Min_cycle;Max_cycle;Signal;HPM_P1;HPM_P2
2024/03/31 00:00:03;;;;;;;5.85;4.03;;;15.10;88.30;;;;;;5052919;28;20035;-76
2024/03/31 00:02:38;;;;;;;5.47;4.10;;;15.00;88.10;;;;;;5053172;28;20032;-76
2024/03/31 00:05:04;;;;;;;5.68;3.97;;;15.00;88.20;;;;;;5048536;28;20033;-76
2024/03/31 00:07:30;;;;;;;7.68;3.80;;;15.00;88.30;;;;;;5049249;28;20029;-76
2024/03/31 00:09:56;;;;;;;6.05;3.67;;;14.90;88.30;;;;;;5054274;28;20113;-76
2024/03/31 00:12:22;;;;;;;5.53;3.80;;;15.00;88.40;;;;;;5059035;28;20021;-76
2024/03/31 00:14:47;;;;;;;4.85;3.55;;;14.90;88.30;;;;;;5049547;28;20040;-76
2024/03/31 00:17:13;;;;;;;5.57;3.70;;;14.90;88.20;;;;;;5051268;28;20074;-76
2024/03/31 00:19:39;;;;;;;7.28;3.58;;;14.90;88.10;;;;;;5053990;28;20034;-76
2024/03/31 00:22:04;;;;;;;5.82;3.83;;;14.80;88.10;;;;;;5054840;28;20107;-76
2024/03/31 00:24:30;;;;;;;6.45;4.15;;;14.80;88.40;;;;;;5052598;28;20047;-76
2024/03/31 00:26:56;;;;;;;6.57;4.30;;;14.70;88.50;;;;;;5055232;28;20037;-76
2024/03/31 00:29:22;;;;;;;6.80;4.15;;;14.70;88.70;;;;;;5066749;28;20029;-77
2024/03/31 00:31:48;;;;;;;5.20;3.97;;;14.70;88.70;;;;;;5065867;28;20545;-76
2024/03/31 00:34:14;;;;;;;7.05;4.05;;;14.60;88.60;;;;;;5051433;28;20099;-76
2024/03/31 00:36:41;;;;;;;11.95;4.10;;;14.60;88.50;;;;;;5054393;28;20040;-76
2024/03/31 00:39:07;;;;;;;6.22;4.03;;;14.70;88.40;;;;;;5052154;28;20400;-76
2024/03/31 00:41:33;;;;;;;7.47;4.35;;;14.60;88.30;;;;;;5059058;28;20086;-76
2024/03/31 00:44:00;;;;;;;6.05;4.30;;;14.60;88.30;;;;;;5047181;28;20033;-76
2024/03/31 00:46:25;;;;;;;5.60;4.07;;;14.60;88.50;;;;;;5054071;28;20128;-76
2024/03/31 00:48:51;;;;;;;4.82;3.75;;;14.50;88.50;;;;;;5054109;28;20108;-78
2024/03/31 00:51:17;;;;;;;5.38;4.05;;;14.40;88.50;;;;;;5055721;28;20032;-76
2024/03/31 00:53:43;;;;;;;5.60;4.20;;;14.40;88.80;;;;;;5057339;28;20138;-76
2024/03/31 00:56:10;;;;;;;5.47;4.00;;;14.30;89.00;;;;;;5061664;28;20047;-74
2024/03/31 00:58:36;;;;;;;5.25;3.75;;;14.20;89.00;;;;;;5060918;28;20048;-77
2024/03/31 01:01:03;;;;;;;50.20;4.88;;;14.20;89.10;;;;;;5053936;28;20556;-77
2024/03/31 01:03:29;;;;;;;9.52;4.72;;;14.20;89.00;;;;;;5057437;28;20032;-75
2024/03/31 01:05:59;;;;;;;18.30;4.43;;;14.20;88.90;;;;;;5051823;28;20033;-75
2024/03/31 01:08:26;;;;;;;5.85;4.03;;;14.20;88.60;;;;;;5047371;28;20486;-75
2024/03/31 01:10:53;;;;;;;4.53;3.50;;;14.20;88.40;;;;;;5063501;28;20136;-74
2024/03/31 01:13:21;;;;;;;5.60;3.80;;;14.20;88.30;;;;;;5052377;28;20075;-75
2024/03/31 01:15:50;;;;;;;5.85;4.40;;;14.20;88.40;;;;;;5065380;28;20553;-75
2024/03/31 01:18:15;;;;;;;6.85;4.60;;;14.20;88.50;;;;;;5068328;28;20063;-75
2024/03/31 01:20:41;;;;;;;7.82;4.68;;;14.10;88.40;;;;;;5046304;28;20033;-74
2024/03/31 01:23:09;;;;;;;7.72;4.32;;;14.10;88.40;;;;;;5059160;28;20283;-75
2024/03/31 01:25:36;;;;;;;9.50;5.00;;;14.20;88.20;;;;;;5048288;28;20477;-75
2024/03/31 01:28:01;;;;;;;7.65;4.93;;;14.10;88.00;;;;;;5062970;28;20107;-75
2024/03/31 01:30:27;;;;;;;234.88;6.90;;;14.10;88.00;;;;;;5065985;28;20068;-75
2024/03/31 01:32:55;;;;;;;107.15;4.50;;;14.10;88.10;;;;;;5049954;28;20024;-75
2024/03/31 01:35:20;;;;;;;145.90;5.22;;;14.00;88.50;;;;;;5061609;28;20082;-75
2024/03/31 01:37:50;;;;;;;137.13;5.18;;;13.90;88.70;;;;;;5050889;28;20450;-75
2024/03/31 01:40:16;;;;;;;115.80;4.88;;;13.80;89.10;;;;;;5056529;28;20126;-75
2024/03/31 01:42:44;;;;;;;97.80;4.80;;;13.80;89.30;;;;;;5047059;28;20465;-75
2024/03/31 01:45:11;;;;;;;41.65;2.53;;;13.70;90.00;;;;;;5050272;28;20029;-75
2024/03/31 01:47:40;;;;;;;109.78;3.83;;;13.70;89.30;;;;;;5056077;28;20110;-75
2024/03/31 01:50:06;;;;;;;128.32;4.80;;;13.70;89.00;;;;;;5060581;28;20033;-74
2024/03/31 01:52:31;;;;;;;108.15;3.38;;;13.80;88.90;;;;;;5059342;28;20052;-75
2024/03/31 01:54:57;;;;;;;115.00;5.38;;;13.80;88.70;;;;;;5052383;28;20121;-74
2024/03/31 01:57:23;;;;;;;137.32;3.33;;;13.80;88.60;;;;;;5066837;28;20368;-75
2024/03/31 01:59:49;;;;;;;155.93;8.05;;;13.80;88.50;;;;;;5046513;28;20144;-74
2024/03/31 02:02:14;;;;;;;136.52;6.20;;;13.80;88.40;;;;;;5061679;28;20090;-74
2024/03/31 02:04:40;;;;;;;109.20;3.83;;;13.80;88.50;;;;;;5051008;28;20087;-74
2024/03/31 02:07:06;;;;;;;116.95;5.30;;;13.80;88.60;;;;;;5064221;28;20044;-75
2024/03/31 02:09:32;;;;;;;158.88;4.72;;;13.70;89.10;;;;;;5058710;28;20036;-74
2024/03/31 02:11:57;;;;;;;154.55;6.88;;;13.70;89.30;;;;;;5050780;28;20465;-75
2024/03/31 02:14:23;;;;;;;100.97;4.30;;;13.60;89.50;;;;;;5049702;28;20028;-75
2024/03/31 02:16:49;;;;;;;145.38;4.43;;;13.60;89.50;;;;;;5051184;28;20036;-75
2024/03/31 02:19:14;;;;;;;105.07;4.82;;;13.70;89.40;;;;;;5062937;28;20044;-75
2024/03/31 02:21:40;;;;;;;81.85;3.47;;;13.70;89.10;;;;;;5055795;28;20040;-75
2024/03/31 02:24:06;;;;;;;87.03;3.25;;;13.70;88.80;;;;;;5050944;28;20040;-75
2024/03/31 02:26:34;;;;;;;55.38;2.85;;;13.70;88.70;;;;;;5062610;28;20029;-75
2024/03/31 02:29:03;;;;;;;49.90;2.40;;;13.70;88.60;;;;;;5048031;28;20029;-75
2024/03/31 02:31:29;;;;;;;59.05;3.00;;;13.70;88.60;;;;;;5047733;28;20055;-75
2024/03/31 02:33:54;;;;;;;94.30;3.28;;;13.70;88.60;;;;;;5052540;28;20029;-75
2024/03/31 02:36:20;;;;;;;35.92;2.60;;;13.70;88.80;;;;;;5051733;28;20396;-76
2024/03/31 02:38:46;;;;;;;65.65;3.05;;;13.60;88.90;;;;;;5054750;28;20625;-75
2024/03/31 02:41:11;;;;;;;45.38;3.45;;;13.60;89.00;;;;;;5049422;28;20033;-75
2024/03/31 02:43:39;;;;;;;41.25;3.20;;;13.60;89.10;;;;;;5059962;28;20120;-75
2024/03/31 02:46:05;;;;;;;65.28;4.25;;;13.60;89.20;;;;;;5063628;28;20147;-76
2024/03/31 02:48:32;;;;;;;38.83;3.92;;;13.60;89.30;;;;;;5059278;28;20068;-76
2024/03/31 02:50:58;;;;;;;43.08;4.10;;;13.60;89.40;;;;;;5053546;28;20057;-75
2024/03/31 02:53:23;;;;;;;49.08;4.97;;;13.60;89.50;;;;;;5052128;28;20146;-75
2024/03/31 02:55:49;;;;;;;59.75;6.47;;;13.70;89.60;;;;;;5061232;28;20060;-76
2024/03/31 02:58:15;;;;;;;53.05;7.15;;;13.70;89.70;;;;;;5053973;28;20032;-75
2024/03/31 03:00:41;;;;;;;47.28;6.97;;;13.70;89.90;;;;;;5068030;28;20032;-75
2024/03/31 03:03:06;;;;;;;97.07;8.15;;;13.70;90.00;;;;;;5051302;28;20029;-76
2024/03/31 03:05:32;;;;;;;77.72;8.40;;;13.70;90.10;;;;;;5063753;28;20029;-76
2024/03/31 03:08:00;;;;;;;60.13;8.35;;;13.70;90.20;;;;;;5049314;28;20032;-75
2024/03/31 03:10:25;;;;;;;14.35;7.35;;;13.70;90.40;;;;;;5057962;28;20025;-76
2024/03/31 03:12:51;;;;;;;16.33;7.05;;;13.60;90.50;;;;;;5049742;28;20021;-75
2024/03/31 03:15:17;;;;;;;12.07;6.07;;;13.60;90.60;;;;;;5053715;28;20033;-76
2024/03/31 03:17:46;;;;;;;11.35;6.32;;;13.50;90.80;;;;;;5049844;28;20039;-76
2024/03/31 03:20:12;;;;;;;11.88;7.28;;;13.50;91.20;;;;;;5063429;28;20251;-75
2024/03/31 03:22:38;;;;;;;16.55;6.70;;;13.30;91.60;;;;;;5058802;28;20484;-76
2024/03/31 03:25:04;;;;;;;13.55;6.65;;;13.20;92.20;;;;;;5061933;28;20033;-76
2024/03/31 03:27:30;;;;;;;9.88;7.15;;;13.10;92.10;;;;;;5051842;28;20121;-76
2024/03/31 03:29:56;;;;;;;12.70;7.20;;;13.00;92.30;;;;;;5066767;28;20146;-76
2024/03/31 03:32:21;;;;;;;9.18;6.78;;;13.00;92.40;;;;;;5062093;28;20025;-76
2024/03/31 03:34:51;;;;;;;9.07;6.43;;;13.00;92.40;;;;;;5060429;28;20044;-76
2024/03/31 03:37:17;;;;;;;11.85;6.55;;;13.00;92.50;;;;;;5060625;28;20028;-75
2024/03/31 03:39:43;;;;;;;9.57;6.82;;;13.00;92.60;;;;;;5060858;28;20036;-76
2024/03/31 03:42:09;;;;;;;11.80;7.60;;;12.90;92.80;;;;;;5061061;28;20108;-76
2024/03/31 03:44:35;;;;;;;14.70;7.10;;;12.90;92.80;;;;;;5056791;28;20392;-76
2024/03/31 03:47:00;;;;;;;12.73;7.25;;;12.80;93.10;;;;;;5048466;28;20033;-75
2024/03/31 03:49:26;;;;;;;10.15;6.32;;;12.80;93.30;;;;;;5058433;28;20024;-76
2024/03/31 03:51:54;;;;;;;12.90;6.10;;;12.80;93.40;;;;;;5050537;28;20112;-76
2024/03/31 03:54:21;;;;;;;12.07;6.53;;;12.80;93.40;;;;;;5062543;28;20021;-76
2024/03/31 03:56:46;;;;;;;10.43;6.82;;;12.80;93.50;;;;;;5059256;28;20031;-76
2024/03/31 03:59:12;;;;;;;10.90;6.30;;;12.80;93.50;;;;;;5060131;28;20049;-75
2024/03/31 04:01:38;;;;;;;10.10;6.38;;;12.80;93.50;;;;;;5059747;28;20074;-76
2024/03/31 04:04:04;;;;;;;12.48;6.35;;;12.80;93.50;;;;;;5052464;28;20021;-76
2024/03/31 04:06:31;;;;;;;10.35;6.75;;;12.80;93.40;;;;;;5057919;28;20139;-75
2024/03/31 04:08:56;;;;;;;10.88;6.40;;;12.80;93.50;;;;;;5062719;28;20036;-76
2024/03/31 04:11:23;;;;;;;9.95;5.90;;;12.80;93.50;;;;;;5055876;28;20025;-76
2024/03/31 04:13:49;;;;;;;13.10;6.45;;;12.80;93.50;;;;;;5047911;28;20547;-76
2024/03/31 04:16:15;;;;;;;11.80;6.38;;;12.80;93.60;;;;;;5047811;28;20115;-76
2024/03/31 04:18:41;;;;;;;9.98;6.05;;;12.80;93.70;;;;;;5050044;28;20119;-75
2024/03/31 04:21:08;;;;;;;10.90;6.43;;;12.80;93.90;;;;;;5047102;28;20082;-76
2024/03/31 04:23:36;;;;;;;15.63;6.32;;;12.70;94.00;;;;;;5053086;28;20123;-76
2024/03/31 04:26:02;;;;;;;8.95;5.68;;;12.70;94.00;;;;;;5054674;28;20025;-76
2024/03/31 04:28:28;;;;;;;10.52;5.88;;;12.70;94.10;;;;;;5061521;28;20032;-76
2024/03/31 04:30:54;;;;;;;9.85;5.32;;;12.70;94.20;;;;;;5057353;28;20031;-75
2024/03/31 04:33:19;;;;;;;8.25;4.68;;;12.60;94.40;;;;;;5058100;28;20039;-76
2024/03/31 04:35:45;;;;;;;7.03;4.18;;;12.60;94.40;;;;;;5054268;28;20082;-76
2024/03/31 04:38:11;;;;;;;6.15;4.28;;;12.60;94.50;;;;;;5064669;28;20024;-76
2024/03/31 04:40:37;;;;;;;11.40;6.15;;;12.50;94.70;;;;;;5057413;28;20032;-76
2024/03/31 04:43:03;;;;;;;11.05;5.15;;;12.50;94.80;;;;;;5052559;28;20033;-76
2024/03/31 04:45:32;;;;;;;6.30;4.68;;;12.50;95.00;;;;;;5065870;28;20025;-76
2024/03/31 04:48:02;;;;;;;6.13;4.57;;;12.50;94.90;;;;;;5056727;28;20032;-76
2024/03/31 04:50:28;;;;;;;7.65;4.60;;;12.50;94.90;;;;;;5066904;28;20055;-76
2024/03/31 04:52:53;;;;;;;5.60;4.32;;;12.50;94.80;;;;;;5045451;28;20468;-76
2024/03/31 04:55:19;;;;;;;6.68;4.80;;;12.50;94.80;;;;;;5061924;28;20474;-75
2024/03/31 04:57:45;;;;;;;7.00;4.82;;;12.50;94.80;;;;;;5053200;28;20082;-75
2024/03/31 05:00:11;;;;;;;7.75;4.88;;;12.60;94.80;;;;;;5053871;28;20179;-76
2024/03/31 05:02:37;;;;;;;10.82;5.53;;;12.60;94.80;;;;;;5051389;28;20049;-76
2024/03/31 05:05:04;;;;;;;6.68;4.63;;;12.60;94.70;;;;;;5053436;28;20032;-75
2024/03/31 05:07:29;;;;;;;10.75;5.72;;;12.60;94.60;;;;;;5060921;28;20082;-76
2024/03/31 05:09:55;;;;;;;9.45;5.30;;;12.60;94.60;;;;;;5059239;28;20033;-76
2024/03/31 05:12:21;;;;;;;6.60;4.90;;;12.70;94.60;;;;;;5059744;28;20358;-75
2024/03/31 05:14:47;;;;;;;7.35;4.82;;;12.60;94.50;;;;;;5048534;28;20071;-76
2024/03/31 05:17:13;;;;;;;8.38;5.18;;;12.60;94.50;;;;;;5060781;28;20028;-75
2024/03/31 05:19:39;;;;;;;6.90;4.97;;;12.70;94.50;;;;;;5063709;28;20033;-76
2024/03/31 05:22:04;;;;;;;6.25;4.53;;;12.70;94.40;;;;;;5062853;28;20028;-76
2024/03/31 05:24:30;;;;;;;8.07;5.20;;;12.70;94.40;;;;;;5053786;28;20029;-75
2024/03/31 05:26:56;;;;;;;5.70;4.40;;;12.80;94.40;;;;;;5064116;28;20036;-76
2024/03/31 05:29:22;;;;;;;6.80;4.63;;;12.70;94.40;;;;;;5064870;28;20163;-75
2024/03/31 05:31:49;;;;;;;5.22;4.03;;;12.80;94.50;;;;;;5045644;28;20142;-75
2024/03/31 05:34:37;;;;;;;4.75;3.70;;;12.70;94.50;;;;;;5058309;28;20501;-75
2024/03/31 05:37:03;;;;;;;4.47;3.45;;;12.80;94.40;;;;;;5064767;28;20169;-76
2024/03/31 05:39:29;;;;;;;5.35;3.70;;;12.70;94.50;;;;;;5064306;28;20111;-75
2024/03/31 05:41:55;;;;;;;5.35;3.60;;;12.70;94.50;;;;;;5056526;28;20020;-75
2024/03/31 05:44:21;;;;;;;4.38;3.33;;;12.70;94.60;;;;;;5057753;28;20036;-76
2024/03/31 05:46:46;;;;;;;4.90;3.25;;;12.70;94.60;;;;;;5061758;28;20055;-75
2024/03/31 05:49:12;;;;;;;5.57;3.50;;;12.70;94.70;;;;;;5050945;28;20081;-75
2024/03/31 05:51:39;;;;;;;6.45;4.00;;;12.70;94.70;;;;;;5057584;28;20051;-75
2024/03/31 05:54:05;;;;;;;4.32;3.40;;;12.70;94.90;;;;;;5054261;28;20476;-76
2024/03/31 05:56:31;;;;;;;6.15;3.50;;;12.60;94.90;;;;;;5061933;28;20033;-76
2024/03/31 05:58:57;;;;;;;4.53;3.50;;;12.60;94.80;;;;;;5048474;28;20511;-75
2024/03/31 06:01:22;;;;;;;7.13;3.60;;;12.60;94.80;;;;;;5055489;28;20024;-75
2024/03/31 06:03:52;;;;;;;5.35;3.80;;;12.60;94.90;;;;;;5065061;28;20028;-75
2024/03/31 06:06:17;;;;;;;4.90;3.40;;;12.60;94.90;;;;;;5058916;28;20043;-76
2024/03/31 06:08:44;;;;;;;6.80;3.67;;;12.60;95.00;;;;;;5068547;28;20044;-75
2024/03/31 06:11:10;;;;;;;3.40;2.13;;;12.60;95.10;;;;;;5060770;28;20370;-75
2024/03/31 06:13:36;;;;;;;6.05;3.80;;;12.60;95.20;;;;;;5061483;28;20040;-75
2024/03/31 06:16:03;;;;;;;4.85;3.40;;;12.60;95.20;;;;;;5050269;28;20569;-75
2024/03/31 06:18:28;;;;;;;6.47;3.83;;;12.60;95.40;;;;;;5049480;28;20025;-76
2024/03/31 06:20:54;;;;;;;5.15;3.88;;;12.60;95.40;;;;;;5069734;28;20399;-75
2024/03/31 06:23:21;;;;;;;9.27;3.70;;;12.60;95.40;;;;;;5053828;28;20031;-75
2024/03/31 06:25:57;;;;;;;5.60;3.53;;;12.60;95.40;;;;;;5069445;28;20032;-75
2024/03/31 06:28:24;;;;;;;6.35;4.22;;;12.60;95.40;;;;;;5068369;28;20024;-75
2024/03/31 06:30:50;;;;;;;14.57;4.35;;;12.60;95.40;;;;;;5063366;28;20103;-75
2024/03/31 06:33:16;;;;;;;5.88;4.07;;;12.60;95.30;;;;;;5056119;28;20116;-76
2024/03/31 06:35:42;;;;;;;6.10;3.65;;;12.60;95.50;;;;;;5070115;28;20385;-76
2024/03/31 06:38:09;;;;;;;5.13;3.70;;;12.60;95.30;;;;;;5060040;28;20013;-76
2024/03/31 06:40:36;;;;;;;7.32;4.00;;;12.70;95.40;;;;;;5067375;28;20134;-76
2024/03/31 06:43:06;;;;;;;7.40;4.07;;;12.60;95.40;;;;;;5054640;28;20033;-76
2024/03/31 06:45:32;;;;;;;6.20;3.78;;;12.60;95.40;;;;;;5065601;28;20060;-76
2024/03/31 06:47:58;;;;;;;6.30;4.00;;;12.60;95.40;;;;;;5051754;28;20052;-76
2024/03/31 06:50:24;;;;;;;7.32;3.90;;;12.60;95.40;;;;;;5059105;28;20070;-76
2024/03/31 06:52:51;;;;;;;5.80;4.07;;;12.60;95.40;;;;;;5056950;28;20028;-76
2024/03/31 06:55:17;;;;;;;5.97;4.30;;;12.70;95.50;;;;;;5054093;28;20057;-76
2024/03/31 06:57:42;;;;;;;6.75;4.40;;;12.70;95.50;;;;;;5059601;28;20519;-75
2024/03/31 07:00:09;;;;;;;9.15;4.53;;;12.60;95.50;;;;;;5049955;28;20044;-76
2024/03/31 07:02:36;;;;;;;8.98;4.85;;;12.60;95.50;;;;;;5065565;28;20048;-76
2024/03/31 07:05:02;;;;;;;6.20;3.55;;;12.60;95.50;;;;;;5055509;28;20384;-76
2024/03/31 07:07:27;;;;;;;7.22;4.65;;;12.60;95.50;;;;;;5066485;28;20064;-76
2024/03/31 07:09:54;;;;;;;9.63;5.85;;;12.60;95.40;;;;;;5056208;28;20068;-76
2024/03/31 07:12:19;;;;;;;8.38;4.63;;;12.70;95.50;;;;;;5065130;28;20420;-76
2024/03/31 07:14:47;;;;;;;6.60;4.30;;;12.70;95.50;;;;;;5068582;28;20037;-76
2024/03/31 07:17:13;;;;;;;6.30;4.30;;;12.70;95.50;;;;;;5053384;28;20168;-76
2024/03/31 07:19:39;;;;;;;6.85;3.92;;;12.70;95.50;;;;;;5054379;28;20659;-76
2024/03/31 07:22:05;;;;;;;6.57;3.60;;;12.70;95.60;;;;;;5064495;28;20075;-76
2024/03/31 07:24:31;;;;;;;4.60;3.65;;;12.70;95.60;;;;;;5047439;28;20057;-76
2024/03/31 07:26:56;;;;;;;5.28;3.70;;;12.60;95.60;;;;;;5067515;28;20020;-76
2024/03/31 07:29:22;;;;;;;6.13;4.30;;;12.70;95.70;;;;;;5066868;28;20020;-76
2024/03/31 07:31:48;;;;;;;6.68;3.92;;;12.60;95.70;;;;;;5047811;28;20033;-76
2024/03/31 07:34:14;;;;;;;6.95;4.38;;;12.60;95.70;;;;;;5048681;28;20103;-76
2024/03/31 07:36:39;;;;;;;4.90;3.45;;;12.60;95.70;;;;;;5058993;28;20036;-76
2024/03/31 07:39:05;;;;;;;7.53;4.07;;;12.60;95.70;;;;;;5059457;28;20468;-77
2024/03/31 07:41:31;;;;;;;6.25;3.85;;;12.60;95.70;;;;;;5054497;28;20036;-76
2024/03/31 07:43:56;;;;;;;6.82;3.67;;;12.70;95.80;;;;;;5058920;28;20487;-76
2024/03/31 07:46:22;;;;;;;6.28;4.18;;;12.60;95.80;;;;;;5052406;28;20025;-76
2024/03/31 07:48:47;;;;;;;6.47;3.85;;;12.70;95.70;;;;;;5052432;28;20029;-76
2024/03/31 07:51:13;;;;;;;4.95;3.72;;;12.70;95.80;;;;;;5053465;28;20031;-76
2024/03/31 07:53:39;;;;;;;6.20;3.75;;;12.70;95.80;;;;;;5062709;28;20056;-76
2024/03/31 07:56:04;;;;;;;5.45;4.22;;;12.70;95.80;;;;;;5064995;28;20481;-76
2024/03/31 07:58:30;;;;;;;6.47;4.35;;;12.70;95.80;;;;;;5064156;28;20479;-75
2024/03/31 08:00:56;;;;;;;7.55;4.72;;;12.70;95.80;;;;;;5062046;28;20044;-79
2024/03/31 08:03:23;;;;;;;5.93;4.13;;;12.70;95.90;;;;;;5049799;28;20024;-76
2024/03/31 08:05:49;;;;;;;7.30;4.45;;;12.70;95.90;;;;;;5056542;28;20149;-76
2024/03/31 08:08:14;;;;;;;6.50;4.68;;;12.70;96.00;;;;;;5067652;28;20086;-74
2024/03/31 08:10:44;;;;;;;6.60;4.32;;;12.70;96.00;;;;;;5065408;28;20037;-76
2024/03/31 08:13:10;;;;;;;9.25;4.80;;;12.70;96.00;;;;;;5056447;28;20025;-76
2024/03/31 08:15:36;;;;;;;6.70;4.93;;;12.70;96.10;;;;;;5053357;28;20155;-75
2024/03/31 08:18:02;;;;;;;7.38;4.45;;;12.70;96.10;;;;;;5061041;28;20056;-78
2024/03/31 08:20:28;;;;;;;6.07;4.15;;;12.70;96.20;;;;;;5056179;28;20067;-75
2024/03/31 08:22:54;;;;;;;6.35;4.07;;;12.60;96.20;;;;;;5065149;28;20040;-75
2024/03/31 08:25:20;;;;;;;7.97;4.88;;;12.60;96.60;;;;;;5066844;28;20074;-75
2024/03/31 08:27:48;;;;;;;6.25;4.60;;;12.60;96.40;;;;;;5053027;28;20532;-75
2024/03/31 08:30:14;;;;;;;6.20;4.80;;;12.50;96.50;;;;;;5054912;28;20156;-75
2024/03/31 08:32:39;;;;;;;6.28;4.30;;;12.50;96.40;;;;;;5065451;28;20024;-75
2024/03/31 08:35:05;;;;;;;8.40;4.85;;;12.50;96.40;;;;;;5060279;28;20048;-75
2024/03/31 08:37:31;;;;;;;8.25;5.75;;;12.50;96.50;;;;;;5055473;28;20036;-75
2024/03/31 08:39:56;;;;;;;7.07;4.88;;;12.50;96.60;;;;;;5055275;28;20033;-75
2024/03/31 08:42:36;;;;;;;7.55;5.15;;;12.50;96.60;;;;;;5057086;28;20452;-78
2024/03/31 08:45:04;;;;;;;7.63;5.65;;;12.50;96.60;;;;;;5055185;28;20395;-76
2024/03/31 08:47:33;;;;;;;7.22;5.18;;;12.50;96.80;;;;;;5052638;28;20017;-77
2024/03/31 08:50:00;;;;;;;8.27;5.63;;;12.50;96.80;;;;;;5059544;28;20031;-76
2024/03/31 08:52:28;;;;;;;9.27;5.30;;;12.50;96.80;;;;;;5051387;28;20032;-75
2024/03/31 08:54:56;;;;;;;9.13;6.38;;;12.50;96.80;;;;;;5058403;28;20045;-75
2024/03/31 08:57:22;;;;;;;7.28;5.00;;;12.60;96.80;;;;;;5055209;28;20020;-75
2024/03/31 08:59:49;;;;;;;9.07;4.95;;;12.60;96.70;;;;;;5055989;28;20048;-76
2024/03/31 09:02:19;;;;;;;8.65;6.10;;;12.60;96.80;;;;;;5054899;28;20035;-76
2024/03/31 09:04:44;;;;;;;9.45;6.35;;;12.70;96.90;;;;;;5053708;28;20033;-75
2024/03/31 09:07:10;;;;;;;7.43;5.43;;;12.60;97.00;;;;;;5052321;28;20052;-77
2024/03/31 09:09:40;;;;;;;7.45;5.32;;;12.60;97.00;;;;;;5043841;28;20032;-77
2024/03/31 09:12:08;;;;;;;6.45;4.93;;;12.60;97.00;;;;;;5058575;28;20439;-78
2024/03/31 09:14:39;;;;;;;9.18;5.68;;;12.60;97.00;;;;;;5056119;28;20404;-76
2024/03/31 09:17:09;;;;;;;5.68;4.22;;;12.60;97.00;;;;;;5060064;28;20456;-76
2024/03/31 09:19:36;;;;;;;7.97;5.40;;;12.60;97.10;;;;;;5056536;28;20032;-76
2024/03/31 09:22:02;;;;;;;7.13;4.82;;;12.60;97.20;;;;;;5053153;28;20047;-76
2024/03/31 09:24:30;;;;;;;7.70;4.28;;;12.80;97.10;;;;;;5059510;28;20120;-76
2024/03/31 09:26:56;;;;;;;5.45;3.97;;;12.70;97.00;;;;;;5067317;28;20056;-76
2024/03/31 09:29:24;;;;;;;5.60;3.60;;;12.80;97.10;;;;;;5052827;28;20029;-77
2024/03/31 09:31:50;;;;;;;6.32;4.47;;;12.80;97.00;;;;;;5051011;28;20033;-76
2024/03/31 09:34:16;;;;;;;6.70;4.13;;;12.80;97.10;;;;;;5068779;28;20472;-77
2024/03/31 09:36:42;;;;;;;8.65;5.05;;;12.90;97.10;;;;;;5057475;28;20411;-77
2024/03/31 09:39:07;;;;;;;6.80;4.70;;;13.00;96.90;;;;;;5067426;28;20099;-76
2024/03/31 09:41:34;;;;;;;7.00;4.38;;;13.10;96.90;;;;;;5057416;28;20086;-77
2024/03/31 09:44:00;;;;;;;9.05;5.57;;;13.10;96.90;;;;;;5068998;28;20028;-74
2024/03/31 09:46:27;;;;;;;7.70;4.57;;;13.10;96.90;;;;;;5058561;28;20050;-76
2024/03/31 09:49:03;;;;;;;8.23;5.18;;;13.10;96.90;;;;;;5056664;28;20151;-76
2024/03/31 09:51:36;;;;;;;8.15;5.15;;;13.10;96.90;;;;;;5058349;28;20106;-73
2024/03/31 09:54:17;;;;;;;8.40;6.32;;;13.10;96.90;;;;;;5049048;28;20040;-77
2024/03/31 09:56:52;;;;;;;8.20;5.88;;;13.10;97.00;;;;;;5065172;28;20048;-77
2024/03/31 09:59:23;;;;;;;7.70;5.47;;;13.10;97.10;;;;;;5058165;28;20600;-77
2024/03/31 10:01:50;;;;;;;7.45;4.95;;;13.10;97.10;;;;;;5055438;28;20032;-77
2024/03/31 10:04:21;;;;;;;8.43;5.20;;;13.10;97.10;;;;;;5055557;28;20064;-80
2024/03/31 10:06:48;;;;;;;7.40;4.97;;;13.20;97.20;;;;;;5065986;28;20029;-76
2024/03/31 10:09:16;;;;;;;7.43;4.32;;;13.10;97.20;;;;;;5051995;28;20357;-75
2024/03/31 10:11:43;;;;;;;7.78;4.88;;;13.10;97.20;;;;;;5065803;28;20032;-76
2024/03/31 10:14:09;;;;;;;8.13;3.45;;;13.10;97.30;;;;;;5069796;28;20070;-77
2024/03/31 10:16:36;;;;;;;7.30;5.10;;;13.10;97.30;;;;;;5068645;28;20033;-76
2024/03/31 10:19:02;;;;;;;8.43;4.45;;;13.10;97.50;;;;;;5052342;28;20028;-76
2024/03/31 10:21:29;;;;;;;7.40;4.03;;;13.10;97.50;;;;;;5060117;28;20032;-79
2024/03/31 10:23:55;;;;;;;9.63;4.25;;;13.20;97.20;;;;;;5061702;28;20473;-77
2024/03/31 10:26:22;;;;;;;5.45;3.90;;;13.30;97.20;;;;;;5062698;28;20029;-78
2024/03/31 10:28:50;;;;;;;6.38;4.03;;;13.30;97.10;;;;;;5064362;28;20475;-75
2024/03/31 10:31:17;;;;;;;2.97;2.63;;;13.30;97.10;;;;;;5068031;28;20444;-76
2024/03/31 10:33:42;;;;;;;5.38;3.65;;;13.30;97.30;;;;;;5062880;28;20064;-76
2024/03/31 10:36:12;;;;;;;5.03;3.70;;;13.30;97.30;;;;;;5069440;28;20079;-76
2024/03/31 10:38:43;;;;;;;5.13;3.88;;;13.30;97.30;;;;;;5054202;28;20115;-76
2024/03/31 10:41:11;;;;;;;5.53;4.30;;;13.50;97.40;;;;;;5067353;28;20040;-76
2024/03/31 10:43:37;;;;;;;6.88;4.78;;;13.40;97.40;;;;;;5067301;28;20031;-76
2024/03/31 10:46:04;;;;;;;5.43;3.65;;;13.30;97.60;;;;;;5055448;28;20825;-75
2024/03/31 10:48:30;;;;;;;8.75;4.85;;;13.30;97.60;;;;;;5051324;28;20044;-76
2024/03/31 10:50:56;;;;;;;7.35;4.53;;;13.40;97.60;;;;;;5047833;28;20032;-76
2024/03/31 10:53:25;;;;;;;9.05;4.22;;;13.50;97.60;;;;;;5062275;28;20032;-76
2024/03/31 10:55:51;;;;;;;7.80;4.63;;;13.60;97.40;;;;;;5061789;28;20048;-76
2024/03/31 10:58:21;;;;;;;6.97;4.15;;;13.60;97.30;;;;;;5057291;28;20036;-76
2024/03/31 11:00:47;;;;;;;8.77;4.57;;;13.70;97.30;;;;;;5052868;28;20123;-76
2024/03/31 11:03:13;;;;;;;8.02;5.47;;;13.70;97.20;;;;;;5058700;28;20717;-76
2024/03/31 11:05:39;;;;;;;9.63;5.05;;;13.80;97.30;;;;;;5058306;28;20039;-76
2024/03/31 11:08:07;;;;;;;7.43;4.80;;;13.80;97.20;;;;;;5062670;28;20024;-76
2024/03/31 11:10:34;;;;;;;7.55;4.95;;;13.90;97.10;;;;;;5066217;28;20093;-75
2024/03/31 11:13:01;;;;;;;11.55;5.68;;;13.90;97.10;;;;;;5064927;28;20502;-77
2024/03/31 11:15:27;;;;;;;7.22;4.85;;;13.90;97.10;;;;;;5062836;28;20095;-76
2024/03/31 11:17:53;;;;;;;9.75;5.55;;;14.00;97.00;;;;;;5064740;28;20036;-77
2024/03/31 11:20:19;;;;;;;10.00;5.13;;;14.10;96.90;;;;;;5053909;28;20083;-78
2024/03/31 11:22:46;;;;;;;8.32;5.28;;;14.20;96.90;;;;;;5064559;28;20028;-78
2024/03/31 11:25:12;;;;;;;10.68;5.65;;;14.30;96.80;;;;;;5055622;28;20110;-76
2024/03/31 11:27:38;;;;;;;8.88;6.05;;;14.30;96.80;;;;;;5051996;28;20052;-77
2024/03/31 11:30:04;;;;;;;8.05;5.47;;;14.30;96.70;;;;;;5063619;28;20040;-78
2024/03/31 11:32:30;;;;;;;7.80;5.32;;;14.40;96.70;;;;;;5068135;28;20744;-76
2024/03/31 11:34:56;;;;;;;9.07;6.10;;;14.40;96.70;;;;;;5059912;28;20518;-78
2024/03/31 11:37:22;;;;;;;11.63;7.55;;;14.40;96.80;;;;;;5060296;28;20057;-79
2024/03/31 11:39:48;;;;;;;9.55;6.90;;;14.40;96.70;;;;;;5063372;28;20452;-77
2024/03/31 11:42:15;;;;;;;10.35;6.80;;;14.40;96.70;;;;;;5063139;28;20033;-77
2024/03/31 11:44:41;;;;;;;9.25;6.38;;;14.40;96.80;;;;;;5068466;28;20487;-76
2024/03/31 11:47:09;;;;;;;9.75;6.05;;;14.50;96.90;;;;;;5049570;28;20388;-75
2024/03/31 11:49:35;;;;;;;10.75;6.75;;;14.50;96.90;;;;;;5057354;28;20488;-75
2024/03/31 11:52:02;;;;;;;7.75;4.75;;;14.60;96.80;;;;;;5062968;28;20475;-75
2024/03/31 11:54:28;;;;;;;9.45;6.68;;;14.50;96.80;;;;;;5053033;28;20139;-75
2024/03/31 11:56:54;;;;;;;13.18;6.72;;;14.50;97.00;;;;;;5060969;28;20131;-75
2024/03/31 11:59:21;;;;;;;9.23;6.85;;;14.50;96.90;;;;;;5057783;28;20135;-75
2024/03/31 12:01:58;;;;;;;9.02;6.32;;;14.50;96.90;;;;;;5060317;28;20067;-76
2024/03/31 12:04:29;;;;;;;9.07;6.70;;;14.50;96.90;;;;;;5060756;28;20102;-75
2024/03/31 12:06:54;;;;;;;10.45;6.65;;;14.60;96.90;;;;;;5059161;28;20557;-76
2024/03/31 12:09:22;;;;;;;12.50;7.45;;;14.60;96.70;;;;;;5054578;28;20206;-76
2024/03/31 12:11:48;;;;;;;13.32;6.80;;;14.60;96.80;;;;;;5057778;28;20029;-76
2024/03/31 12:14:14;;;;;;;9.52;6.72;;;14.80;96.70;;;;;;5047173;28;20036;-75
2024/03/31 12:16:43;;;;;;;9.73;6.00;;;14.80;96.70;;;;;;5052959;28;20036;-75
2024/03/31 12:19:09;;;;;;;10.38;6.40;;;14.80;96.70;;;;;;5058411;28;20040;-74
2024/03/31 12:21:36;;;;;;;11.02;6.70;;;14.90;96.80;;;;;;5054032;28;20485;-74
2024/03/31 12:24:03;;;;;;;10.52;6.57;;;14.90;96.80;;;;;;5061665;28;20055;-75
2024/03/31 12:26:29;;;;;;;11.40;5.68;;;14.80;96.90;;;;;;5051485;28;20158;-74
2024/03/31 12:28:54;;;;;;;9.02;6.07;;;14.90;97.10;;;;;;5058972;28;20151;-75
2024/03/31 12:31:22;;;;;;;9.90;5.90;;;15.00;96.80;;;;;;5058265;28;20166;-75
2024/03/31 12:33:48;;;;;;;11.48;6.30;;;15.00;96.70;;;;;;5055036;28;20029;-75
2024/03/31 12:36:15;;;;;;;12.10;6.10;;;15.10;96.70;;;;;;5056945;28;20044;-74
2024/03/31 12:38:42;;;;;;;8.88;6.32;;;15.20;96.60;;;;;;5066142;28;20036;-74